createdAt,value
2019-02-26T00:01:50.704Z,52.60
2019-02-26T00:04:20.872Z,52.40
2019-02-26T00:06:51.324Z,53.10
2019-02-26T00:09:22.373Z,54.10
2019-02-26T00:11:49.946Z,54.10
2019-02-26T00:14:20.382Z,53.70
2019-02-26T00:16:50.604Z,54.00
2019-02-26T00:19:18.887Z,54.90
2019-02-26T00:21:47.937Z,54.30
2019-02-26T00:24:17.777Z,54.60
2019-02-26T00:26:46.459Z,55.30
2019-02-26T00:29:15.044Z,55.30
2019-02-26T00:31:46.046Z,54.70
2019-02-26T00:34:16.859Z,54.90
2019-02-26T00:36:45.298Z,55.20
2019-02-26T00:39:14.091Z,56.10
2019-02-26T00:41:42.979Z,56.70
2019-02-26T00:44:11.879Z,56.80
2019-02-26T00:46:40.966Z,57.40
2019-02-26T00:49:09.749Z,57.90
2019-02-26T00:51:39.811Z,58.10
2019-02-26T00:54:08.953Z,57.90
2019-02-26T00:56:38.629Z,58.10
2019-02-26T00:59:07.897Z,57.90
2019-02-26T01:01:36.763Z,58.60
2019-02-26T01:04:05.452Z,58.50
2019-02-26T01:06:34.043Z,58.20
2019-02-26T01:09:05.538Z,58.60
2019-02-26T01:11:33.349Z,58.90
2019-02-26T01:14:01.832Z,60.10
2019-02-26T01:16:30.417Z,60.40
2019-02-26T01:18:58.895Z,59.60
2019-02-26T01:21:29.136Z,59.60
2019-02-26T01:23:59.601Z,59.90
2019-02-26T01:26:27.954Z,59.90
2019-02-26T01:28:58.408Z,59.30
2019-02-26T01:31:27.397Z,59.90
2019-02-26T01:33:57.430Z,60.00
2019-02-26T01:36:26.147Z,60.10
2019-02-26T01:38:54.625Z,59.90
2019-02-26T01:41:24.985Z,59.70
2019-02-26T01:43:53.535Z,61.20
2019-02-26T01:46:22.023Z,58.90
2019-02-26T01:48:50.598Z,58.50
2019-02-26T01:51:20.019Z,59.30
2019-02-26T01:53:51.424Z,60.80
2019-02-26T01:56:20.075Z,61.20
2019-02-26T01:58:56.378Z,61.70
2019-02-26T02:01:21.385Z,61.60
2019-02-26T02:03:52.734Z,61.50
2019-02-26T02:06:19.900Z,60.50
2019-02-26T02:08:50.463Z,60.20
2019-02-26T02:11:23.417Z,60.90
2019-02-26T02:13:49.030Z,62.30
2019-02-26T02:16:17.612Z,61.90
2019-02-26T02:18:48.162Z,62.90
2019-02-26T02:21:16.313Z,62.00
2019-02-26T02:23:46.424Z,61.20
2019-02-26T02:26:21.059Z,61.70
2019-02-26T02:28:49.643Z,62.10
2019-02-26T02:31:18.124Z,62.80
2019-02-26T02:33:46.707Z,63.40
2019-02-26T02:36:17.473Z,64.30
2019-02-26T02:38:45.616Z,64.20
2019-02-26T02:41:14.301Z,63.50
2019-02-26T02:43:42.779Z,64.50
2019-02-26T02:46:11.366Z,63.60
2019-02-26T02:48:40.807Z,63.30
2019-02-26T02:51:13.133Z,63.30
2019-02-26T02:53:39.680Z,63.80
2019-02-26T02:56:10.564Z,63.90
2019-02-26T02:58:39.000Z,64.20
2019-02-26T03:01:08.923Z,64.30
2019-02-26T03:03:37.386Z,64.30
2019-02-26T03:06:07.599Z,64.00
2019-02-26T03:08:36.092Z,63.90
2019-02-26T03:11:04.672Z,63.30
2019-02-26T03:13:33.360Z,62.80
2019-02-26T03:16:01.943Z,63.30
2019-02-26T03:18:30.524Z,63.60
2019-02-26T03:21:01.428Z,63.60
2019-02-26T03:23:30.842Z,63.70
2019-02-26T03:25:59.551Z,64.00
2019-02-26T03:28:28.238Z,63.60
2019-02-26T03:30:56.929Z,63.60
2019-02-26T03:33:25.544Z,64.60
2019-02-26T03:35:54.094Z,64.30
2019-02-26T03:38:23.496Z,64.00
2019-02-26T03:40:55.528Z,63.60
2019-02-26T03:43:23.324Z,64.10
2019-02-26T03:45:52.010Z,64.10
2019-02-26T03:48:20.699Z,64.60
2019-02-26T03:50:49.281Z,65.20
2019-02-26T03:53:17.866Z,65.70
2019-02-26T03:55:46.544Z,66.90
2019-02-26T03:58:15.131Z,68.00
2019-02-26T04:00:44.779Z,68.30
2019-02-26T04:03:15.143Z,69.10
2019-02-26T04:05:44.154Z,68.90
2019-02-26T04:08:12.633Z,68.90
2019-02-26T04:10:41.219Z,68.30
2019-02-26T04:13:09.801Z,67.50
2019-02-26T04:15:38.456Z,67.30
2019-02-26T04:18:08.606Z,67.20
2019-02-26T04:20:37.189Z,66.70
2019-02-26T04:23:05.774Z,67.20
2019-02-26T04:25:51.482Z,66.50
2019-02-26T04:28:27.243Z,66.70
2019-02-26T04:30:58.970Z,67.10
2019-02-26T04:34:05.351Z,67.70
2019-02-26T04:36:48.361Z,68.70
2019-02-26T04:39:36.824Z,69.40
2019-02-26T04:42:17.556Z,69.20
2019-02-26T04:45:07.941Z,68.60
2019-02-26T04:47:57.585Z,68.90
2019-02-26T04:50:28.689Z,69.00
2019-02-26T04:52:59.103Z,70.20
2019-02-26T04:55:28.997Z,71.00
2019-02-26T04:57:56.386Z,70.90
2019-02-26T05:00:29.303Z,70.80
2019-02-26T05:02:55.085Z,70.70
2019-02-26T05:05:25.873Z,71.20
2019-02-26T05:07:53.993Z,70.90
2019-02-26T05:10:24.319Z,70.50
2019-02-26T05:12:57.228Z,70.10
2019-02-26T05:15:26.506Z,70.50
2019-02-26T05:17:55.189Z,70.80
2019-02-26T05:20:23.773Z,71.20
2019-02-26T05:22:57.709Z,71.40
2019-02-26T05:25:25.344Z,71.90
2019-02-26T05:27:54.028Z,71.90
2019-02-26T05:30:22.787Z,72.20
2019-02-26T05:32:54.092Z,72.10
2019-02-26T05:35:23.404Z,72.10
2019-02-26T05:37:52.048Z,72.30
2019-02-26T05:40:22.244Z,72.40
2019-02-26T05:42:53.248Z,72.30
2019-02-26T05:45:23.374Z,72.60
2019-02-26T05:47:54.738Z,72.10
2019-02-26T05:50:21.926Z,71.70
2019-02-26T05:52:57.461Z,72.10
2019-02-26T05:55:23.070Z,72.50
2019-02-26T05:57:52.081Z,72.30
2019-02-26T06:00:22.645Z,71.70
2019-02-26T06:02:51.163Z,71.50
2019-02-26T06:05:26.945Z,71.50
2019-02-26T06:07:55.529Z,71.50
2019-02-26T06:10:25.171Z,72.50
2019-02-26T06:12:54.334Z,72.90
2019-02-26T06:15:28.789Z,72.80
2019-02-26T06:17:56.517Z,72.60
2019-02-26T06:20:26.701Z,73.00
2019-02-26T06:22:56.553Z,72.60
2019-02-26T06:25:26.267Z,72.50
2019-02-26T06:27:54.949Z,73.00
2019-02-26T06:30:23.544Z,73.00
2019-02-26T06:32:52.216Z,73.30
2019-02-26T06:35:21.094Z,73.10
2019-02-26T06:37:49.800Z,71.90
2019-02-26T06:40:18.484Z,70.90
2019-02-26T06:42:47.269Z,70.40
2019-02-26T06:45:16.714Z,70.60
2019-02-26T06:47:48.703Z,70.90
2019-02-26T06:50:18.557Z,71.60
2019-02-26T06:52:47.669Z,71.90
2019-02-26T06:55:16.377Z,71.80
2019-02-26T06:57:47.187Z,71.90
2019-02-26T07:00:21.271Z,72.30
2019-02-26T07:02:48.877Z,72.30
2019-02-26T07:05:17.382Z,73.20
2019-02-26T07:07:46.102Z,72.40
2019-02-26T07:10:18.471Z,71.90
2019-02-26T07:12:47.966Z,72.00
2019-02-26T07:15:16.152Z,71.20
2019-02-26T07:17:45.990Z,71.00
2019-02-26T07:20:14.954Z,71.00
2019-02-26T07:22:44.101Z,71.10
2019-02-26T07:25:15.955Z,70.70
2019-02-26T07:27:44.084Z,71.30
2019-02-26T07:30:12.861Z,70.40
2019-02-26T07:32:45.135Z,69.80
2019-02-26T07:35:13.767Z,70.20
2019-02-26T07:37:41.898Z,70.10
2019-02-26T07:40:13.767Z,69.60
2019-02-26T07:42:43.845Z,68.90
2019-02-26T07:45:15.320Z,67.70
2019-02-26T07:47:44.982Z,68.00
2019-02-26T07:50:14.629Z,67.10
2019-02-26T07:52:43.432Z,66.90
2019-02-26T07:55:14.441Z,66.70
2019-02-26T07:57:44.870Z,66.70
2019-02-26T08:00:21.366Z,66.00
2019-02-26T08:02:51.601Z,65.50
2019-02-26T08:05:21.299Z,65.20
2019-02-26T08:07:51.912Z,64.80
2019-02-26T08:10:20.410Z,64.00
2019-02-26T08:12:48.997Z,63.90
2019-02-26T08:15:17.579Z,63.20
2019-02-26T08:17:50.274Z,62.90
2019-02-26T08:20:16.387Z,63.00
2019-02-26T08:22:44.966Z,62.50
2019-02-26T08:25:13.943Z,62.20
2019-02-26T08:27:42.540Z,60.90
2019-02-26T08:30:17.746Z,60.20
2019-02-26T08:32:48.491Z,59.60
2019-02-26T08:35:27.796Z,58.80
2019-02-26T08:37:56.333Z,59.10
2019-02-26T08:40:24.941Z,59.20
2019-02-26T08:42:53.602Z,58.30
2019-02-26T08:45:23.555Z,58.00
2019-02-26T08:47:52.406Z,57.70
2019-02-26T08:50:20.889Z,58.00
2019-02-26T08:52:50.779Z,57.80
2019-02-26T08:55:22.255Z,57.10
2019-02-26T08:57:51.959Z,56.50
2019-02-26T09:00:20.946Z,55.80
2019-02-26T09:02:53.527Z,55.30
2019-02-26T09:05:20.587Z,54.90
2019-02-26T09:07:50.588Z,54.40
2019-02-26T09:10:22.658Z,53.50
2019-02-26T09:12:51.853Z,52.50
2019-02-26T09:15:20.775Z,52.40
2019-02-26T09:17:49.333Z,51.40
2019-02-26T09:20:20.067Z,49.80
2019-02-26T09:22:50.890Z,47.70
2019-02-26T09:25:21.062Z,45.80
2019-02-26T09:27:49.411Z,43.40
2019-02-26T09:30:25.560Z,41.80
2019-02-26T09:32:54.352Z,38.60
2019-02-26T09:35:28.133Z,35.60
2019-02-26T09:37:57.757Z,33.20
2019-02-26T09:40:26.535Z,30.90
2019-02-26T09:42:57.250Z,29.30
2019-02-26T09:45:29.779Z,27.70
2019-02-26T09:47:58.097Z,26.50
2019-02-26T09:50:26.925Z,25.40
2019-02-26T09:52:58.179Z,24.40
2019-02-26T09:55:26.038Z,23.80
2019-02-26T09:57:54.620Z,23.30
2019-02-26T10:00:26.997Z,21.80
2019-02-26T10:02:53.934Z,20.70
2019-02-26T10:05:22.554Z,19.50
2019-02-26T10:07:53.914Z,18.80
2019-02-26T10:10:22.295Z,18.40
2019-02-26T10:12:53.624Z,17.60
2019-02-26T10:15:21.051Z,16.90
2019-02-26T10:17:49.861Z,16.60
2019-02-26T10:20:27.928Z,16.60
2019-02-26T10:22:57.228Z,16.70
2019-02-26T10:25:26.388Z,16.20
2019-02-26T10:27:54.308Z,15.40
2019-02-26T10:30:22.894Z,15.10
2019-02-26T10:32:51.466Z,14.70
2019-02-26T10:35:32.541Z,14.40
2019-02-26T10:38:05.146Z,14.30
2019-02-26T10:40:35.497Z,15.10
2019-02-26T10:43:01.788Z,14.60
2019-02-26T10:45:36.277Z,13.90
2019-02-26T10:48:01.766Z,13.20
2019-02-26T10:50:31.898Z,12.90
2019-02-26T10:53:07.108Z,12.20
2019-02-26T10:55:38.178Z,12.30
2019-02-26T10:58:06.834Z,13.10
2019-02-26T11:00:34.622Z,12.80
2019-02-26T11:03:01.984Z,12.50
2019-02-26T11:05:30.502Z,12.20
2019-02-26T11:08:02.235Z,11.60
2019-02-26T11:10:29.426Z,11.20
2019-02-26T11:12:59.536Z,11.70
2019-02-26T11:15:31.039Z,11.50
2019-02-26T11:17:58.585Z,11.40
2019-02-26T11:20:30.052Z,11.30
2019-02-26T11:22:57.452Z,11.10
2019-02-26T11:25:27.380Z,11.20
2019-02-26T11:27:56.255Z,11.10
2019-02-26T11:30:29.213Z,10.80
2019-02-26T11:32:59.185Z,10.60
2019-02-26T11:35:27.450Z,10.30
2019-02-26T11:37:57.829Z,10.30
2019-02-26T11:40:29.645Z,9.80
2019-02-26T11:42:59.928Z,9.70
2019-02-26T11:45:27.919Z,9.40
2019-02-26T11:47:57.974Z,9.50
2019-02-26T11:50:28.495Z,9.60
2019-02-26T11:52:57.637Z,10.10
2019-02-26T11:55:28.515Z,10.00
2019-02-26T11:57:56.356Z,10.60
2019-02-26T12:00:34.196Z,10.20
2019-02-26T12:03:01.406Z,10.50
2019-02-26T12:05:33.437Z,10.80
2019-02-26T12:08:00.587Z,10.00
2019-02-26T12:10:31.827Z,9.40
2019-02-26T12:13:02.065Z,9.50
2019-02-26T12:15:30.803Z,9.20
2019-02-26T12:18:00.173Z,9.60
2019-02-26T12:20:29.089Z,9.40
2019-02-26T12:22:57.758Z,9.60
2019-02-26T12:25:26.333Z,9.40
2019-02-26T12:27:54.922Z,9.30
2019-02-26T12:30:24.768Z,9.30
2019-02-26T12:32:55.129Z,9.30
2019-02-26T12:35:23.743Z,8.70
2019-02-26T12:37:53.869Z,8.40
2019-02-26T12:40:25.329Z,8.60
2019-02-26T12:42:52.770Z,8.30
2019-02-26T12:45:22.721Z,8.90
2019-02-26T12:50:26.601Z,8.40
2019-02-26T12:52:53.893Z,8.40
2019-02-26T12:55:28.925Z,8.50
2019-02-26T12:57:56.486Z,8.10
2019-02-26T13:00:24.541Z,9.00
2019-02-26T13:02:53.208Z,9.10
2019-02-26T13:05:22.934Z,9.20
2019-02-26T13:07:51.964Z,9.00
2019-02-26T13:10:26.628Z,8.70
2019-02-26T13:13:00.183Z,8.60
2019-02-26T13:15:25.444Z,8.40
2019-02-26T13:17:54.676Z,9.00
2019-02-26T13:20:27.453Z,8.60
2019-02-26T13:22:56.958Z,8.20
2019-02-26T13:25:26.893Z,8.30
2019-02-26T13:27:55.646Z,8.20
2019-02-26T13:30:25.433Z,8.60
2019-02-26T13:32:58.038Z,9.10
2019-02-26T13:35:24.351Z,8.80
2019-02-26T13:37:55.389Z,9.10
2019-02-26T13:40:24.059Z,8.90
2019-02-26T13:45:24.493Z,9.20
2019-02-26T13:48:00.712Z,9.00
2019-02-26T13:50:26.609Z,8.70
2019-02-26T13:52:55.288Z,9.00
2019-02-26T13:55:24.076Z,9.00
2019-02-26T13:57:52.867Z,9.80
2019-02-26T14:00:26.397Z,10.20
2019-02-26T14:02:51.772Z,9.90
2019-02-26T14:05:20.356Z,10.20
2019-02-26T14:07:48.945Z,9.90
2019-02-26T14:10:24.690Z,9.80
2019-02-26T14:12:53.378Z,9.00
2019-02-26T14:15:28.003Z,9.50
2019-02-26T14:17:56.584Z,9.10
2019-02-26T14:20:25.160Z,8.30
2019-02-26T14:22:53.661Z,8.80
2019-02-26T14:25:22.233Z,8.70
2019-02-26T14:27:50.940Z,8.10
2019-02-26T14:30:21.757Z,8.00
2019-02-26T14:32:50.350Z,8.10
2019-02-26T14:35:18.921Z,9.00
2019-02-26T14:38:00.138Z,8.70
2019-02-26T14:40:29.972Z,8.20
2019-02-26T14:42:58.703Z,8.20
2019-02-26T14:45:28.003Z,8.30
2019-02-26T14:47:56.595Z,8.50
2019-02-26T14:50:26.352Z,8.60
2019-02-26T14:52:55.390Z,9.00
2019-02-26T14:55:23.974Z,9.20
2019-02-26T14:57:52.561Z,9.20
2019-02-26T15:00:32.199Z,9.40
2019-02-26T15:03:00.789Z,9.00
2019-02-26T15:05:30.599Z,9.30
2019-02-26T15:08:00.981Z,9.10
2019-02-26T15:10:29.713Z,9.20
2019-02-26T15:12:58.393Z,9.30
2019-02-26T15:15:26.983Z,9.20
2019-02-26T15:17:55.562Z,8.80
2019-02-26T15:20:25.254Z,9.30
2019-02-26T15:22:53.760Z,9.20
2019-02-26T15:25:25.712Z,9.20
2019-02-26T15:27:54.297Z,9.30
2019-02-26T15:30:23.172Z,9.60
2019-02-26T15:32:51.763Z,10.40
2019-02-26T15:35:20.386Z,10.90
2019-02-26T15:37:49.129Z,10.30
2019-02-26T15:40:20.729Z,10.40
2019-02-26T15:42:52.458Z,10.20
2019-02-26T15:45:29.844Z,10.80
2019-02-26T15:47:58.631Z,10.60
2019-02-26T15:50:27.318Z,10.20
2019-02-26T15:52:55.898Z,10.30
2019-02-26T15:55:29.172Z,10.00
2019-02-26T15:58:03.069Z,10.20
2019-02-26T16:00:28.509Z,10.90
2019-02-26T16:02:59.371Z,11.90
2019-02-26T16:05:35.367Z,11.90
2019-02-26T16:08:07.674Z,12.00
2019-02-26T16:10:36.258Z,11.80
2019-02-26T16:13:05.152Z,11.90
2019-02-26T16:15:35.170Z,11.80
2019-02-26T16:18:03.856Z,11.90
2019-02-26T16:20:32.434Z,12.40
2019-02-26T16:23:01.022Z,12.10
2019-02-26T16:25:30.327Z,12.10
2019-02-26T16:27:59.354Z,12.50
2019-02-26T16:30:29.212Z,12.70
2019-02-26T16:32:57.808Z,12.70
2019-02-26T16:35:26.409Z,13.30
2019-02-26T16:37:55.146Z,13.60
2019-02-26T16:40:24.071Z,14.20
2019-02-26T16:42:52.741Z,14.30
2019-02-26T16:45:28.699Z,14.30
2019-02-26T16:47:57.632Z,14.80
2019-02-26T16:50:30.999Z,15.20
2019-02-26T16:53:00.359Z,15.80
2019-02-26T16:55:31.272Z,16.30
2019-02-26T16:58:02.595Z,16.70
2019-02-26T17:00:31.282Z,17.00
2019-02-26T17:03:00.955Z,17.90
2019-02-26T17:05:30.087Z,19.40
2019-02-26T17:07:59.152Z,20.90
2019-02-26T17:10:30.409Z,22.80
2019-02-26T17:13:01.909Z,24.20
2019-02-26T17:15:33.647Z,24.70
2019-02-26T17:18:02.417Z,26.40
2019-02-26T17:20:31.623Z,27.70
2019-02-26T17:23:00.529Z,28.40
2019-02-26T17:25:34.548Z,29.30
2019-02-26T17:28:00.947Z,30.60
2019-02-26T17:30:29.739Z,31.50
2019-02-26T17:32:58.834Z,32.50
2019-02-26T17:35:29.597Z,33.30
2019-02-26T17:37:58.482Z,33.40
2019-02-26T17:40:27.779Z,33.60
2019-02-26T17:42:56.852Z,34.00
2019-02-26T17:45:31.074Z,34.90
2019-02-26T17:47:59.992Z,35.50
2019-02-26T17:50:39.892Z,36.00
2019-02-26T17:53:08.901Z,36.50
2019-02-26T17:55:37.716Z,37.00
2019-02-26T17:58:09.862Z,37.40
2019-02-26T18:00:41.108Z,37.80
2019-02-26T18:03:10.096Z,38.20
2019-02-26T18:05:50.678Z,38.90
2019-02-26T18:08:10.334Z,39.20
2019-02-26T18:10:39.443Z,39.50
2019-02-26T18:13:08.526Z,40.00
2019-02-26T18:15:37.110Z,40.00
2019-02-26T18:18:05.795Z,40.70
2019-02-26T18:20:34.896Z,41.20
2019-02-26T18:23:03.678Z,41.20
2019-02-26T18:25:32.465Z,42.00
2019-02-26T18:28:01.483Z,42.30
2019-02-26T18:30:30.952Z,42.90
2019-02-26T18:33:00.118Z,43.30
2019-02-26T18:35:28.846Z,43.40
2019-02-26T18:37:57.737Z,43.80
2019-02-26T18:40:28.278Z,43.90
2019-02-26T18:43:00.566Z,43.60
2019-02-26T18:45:30.706Z,44.10
2019-02-26T18:48:02.677Z,44.50
2019-02-26T18:50:31.294Z,44.80
2019-02-26T18:55:37.133Z,44.30
2019-02-26T18:58:07.805Z,44.40
2019-02-26T19:00:36.901Z,44.50
2019-02-26T19:03:08.785Z,44.50
2019-02-26T19:05:37.935Z,44.90
2019-02-26T19:08:06.524Z,45.30
2019-02-26T19:10:35.438Z,45.50
2019-02-26T19:13:04.631Z,45.60
2019-02-26T19:15:34.548Z,45.70
2019-02-26T19:18:08.475Z,45.50
2019-02-26T19:20:38.555Z,45.30
2019-02-26T19:23:07.173Z,45.90
2019-02-26T19:25:36.402Z,45.60
2019-02-26T19:28:05.038Z,45.60
2019-02-26T19:30:36.791Z,45.10
2019-02-26T19:33:04.357Z,45.30
2019-02-26T19:35:40.157Z,45.60
2019-02-26T19:38:06.257Z,45.80
2019-02-26T19:43:28.820Z,46.30
2019-02-26T19:45:57.778Z,46.40
2019-02-26T19:48:30.470Z,46.70
2019-02-26T19:51:01.253Z,47.00
2019-02-26T19:53:34.456Z,47.70
2019-02-26T19:56:03.898Z,47.60
2019-02-26T19:58:32.481Z,47.30
2019-02-26T20:01:01.066Z,47.10
2019-02-26T20:03:39.583Z,47.20
2019-02-26T20:06:01.410Z,47.30
2019-02-26T20:08:29.989Z,47.30
2019-02-26T20:10:58.454Z,47.50
2019-02-26T20:13:27.367Z,47.90
2019-02-26T20:15:56.152Z,48.50
2019-02-26T20:18:26.173Z,49.40
2019-02-26T20:20:55.273Z,49.40
2019-02-26T20:23:24.243Z,50.00
2019-02-26T20:25:54.178Z,50.40
2019-02-26T20:28:22.649Z,51.00
2019-02-26T20:30:54.916Z,51.00
2019-02-26T20:33:23.604Z,50.80
2019-02-26T20:35:52.215Z,50.70
2019-02-26T20:38:22.763Z,50.90
2019-02-26T20:40:51.817Z,51.00
2019-02-26T20:43:21.316Z,51.60
2019-02-26T20:45:51.090Z,51.40
2019-02-26T20:48:20.755Z,52.00
2019-02-26T20:50:53.504Z,52.20
2019-02-26T20:53:21.875Z,52.50
2019-02-26T20:55:52.685Z,52.90
2019-02-26T20:58:22.035Z,52.60
2019-02-26T21:00:50.827Z,52.60
2019-02-26T21:03:23.623Z,52.80
2019-02-26T21:05:49.832Z,52.70
2019-02-26T21:08:20.559Z,52.80
2019-02-26T21:10:51.810Z,53.20
2019-02-26T21:13:20.701Z,53.20
2019-02-26T21:15:50.725Z,53.20
2019-02-26T21:18:19.302Z,53.20
2019-02-26T21:20:49.350Z,53.50
2019-02-26T21:23:21.879Z,53.60
2019-02-26T21:25:52.018Z,53.30
2019-02-26T21:28:20.619Z,53.20
2019-02-26T21:30:49.501Z,53.40
2019-02-26T21:33:18.382Z,53.80
2019-02-26T21:35:54.189Z,54.00
2019-02-26T21:38:17.190Z,53.80
2019-02-26T21:40:48.673Z,54.00
2019-02-26T21:43:16.093Z,54.10
2019-02-26T21:45:44.629Z,54.10
2019-02-26T21:48:13.364Z,54.00
2019-02-26T21:50:42.764Z,54.00
2019-02-26T21:53:15.447Z,54.00
2019-02-26T21:55:44.275Z,53.60
2019-02-26T21:58:14.896Z,53.40
2019-02-26T22:00:44.340Z,53.20
2019-02-26T22:03:13.058Z,53.20
2019-02-26T22:05:41.726Z,53.40
2019-02-26T22:08:10.637Z,53.20
2019-02-26T22:10:40.201Z,52.70
2019-02-26T22:13:09.539Z,52.70
2019-02-26T22:15:38.122Z,52.80
2019-02-26T22:18:06.806Z,52.70
2019-02-26T22:20:36.612Z,52.90
2019-02-26T22:23:05.510Z,52.90
2019-02-26T22:25:34.086Z,53.00
2019-02-26T22:28:08.820Z,53.20
2019-02-26T22:30:38.017Z,53.40
2019-02-26T22:33:07.982Z,53.50
2019-02-26T22:35:38.241Z,53.90
2019-02-26T22:38:06.948Z,54.00
2019-02-26T22:40:35.527Z,54.40
2019-02-26T22:43:04.112Z,54.80
2019-02-26T22:45:45.149Z,55.20
2019-02-26T22:48:14.190Z,55.30
2019-02-26T22:50:43.069Z,55.20
2019-02-26T22:53:11.652Z,55.30
2019-02-26T22:55:40.133Z,55.60
2019-02-26T22:58:08.716Z,56.20
2019-02-26T23:00:48.283Z,56.40
2019-02-26T23:03:15.951Z,56.60
2019-02-26T23:06:04.216Z,56.80
2019-02-26T23:08:33.053Z,56.80
2019-02-26T23:11:01.636Z,56.80
2019-02-26T23:13:31.881Z,57.30
2019-02-26T23:16:01.057Z,57.10
2019-02-26T23:18:31.051Z,57.40
2019-02-26T23:21:00.600Z,57.80
2019-02-26T23:23:29.268Z,58.50
2019-02-26T23:25:57.745Z,59.10
2019-02-26T23:28:26.331Z,59.20
2019-02-26T23:30:55.072Z,59.40
2019-02-26T23:33:23.905Z,59.20
2019-02-26T23:35:54.928Z,59.30
2019-02-26T23:38:22.702Z,59.90
2019-02-26T23:40:51.295Z,60.10
2019-02-26T23:43:20.082Z,60.00
2019-02-26T23:45:48.554Z,60.20
2019-02-26T23:48:17.146Z,60.00
2019-02-26T23:50:47.378Z,60.20
2019-02-26T23:53:15.955Z,61.40
2019-02-26T23:55:47.255Z,61.20
2019-02-26T23:58:14.761Z,61.20
